Sky Ever — DSQX9 — position and weather

sailwx.info

Track history (hours):
 
Tides and Currents Weather Stations Pressure Air Temp Water Temp Dewpoint Dewpoint Depression Visibility Wind Speed Wind Dir Waves Ship Positions

Sky Ever

Last reported at 2017-Sep-09 12:28 UTC. Time now 2017-Sep-20 20:15 UTC.
Position N 34°37' E 134°58'.
Warning: this ship's position is 11 days out of date.

Length 76 m; draft 5.4 m.

Type: Cargo ship. MMSI: 441751000.

Date/timePositionNaut miles runAvg speedWind from/ knotsBaromVisibWave heightAir tempDewpointWater temp
2017-Sep-09 12:28N 34°37' E 134°58'510.8
2017-Sep-09 11:58N 34°36' E 135°04'4 8.7
2017-Sep-09 11:30N 34°36' E 135°09'4 8.3
2017-Sep-09 11:00N 34°36' E 135°14'4 8.4
2017-Sep-09 10:30N 34°36' E 135°19'4 8.5
2017-Sep-09 10:00N 34°38' E 135°24'3 6.1
2017-Sep-09 09:30N 34°38' E 135°27'0 0.1
2017-Sep-09 08:58N 34°38' E 135°27'0 0.0
2017-Sep-09 07:46N 34°38' E 135°27'0 0.0
2017-Sep-09 07:28N 34°38' E 135°27'0 0.0
2017-Sep-09 06:58N 34°38' E 135°27'0 0.0
2017-Sep-09 06:28N 34°38' E 135°27'0 0.0
2017-Sep-09 05:52N 34°38' E 135°27'0 0.0
2017-Sep-09 05:28N 34°38' E 135°27'0 0.0
2017-Sep-09 04:52N 34°38' E 135°27'0 0.1
2017-Sep-09 04:10N 34°38' E 135°27'0 0.2
2017-Sep-09 03:58N 34°38' E 135°27'0 0.0
2017-Sep-09 03:22N 34°38' E 135°27'0 0.0
2017-Sep-09 01:28N 34°38' E 135°27'0 0.0
2017-Sep-09 00:58N 34°38' E 135°27'0 0.0
2017-Sep-09 00:28N 34°38' E 135°27'0 0.0
2017-Sep-08 23:46N 34°38' E 135°27'0 0.0
2017-Sep-08 23:16N 34°38' E 135°27'0 0.0
2017-Sep-08 22:58N 34°38' E 135°27'1 3.1
2017-Sep-08 22:30N 34°39' E 135°26'3 4.7
2017-Sep-08 21:47N 34°37' E 135°22'0 0.0
2017-Sep-08 21:29N 34°37' E 135°22'0 0.0
2017-Sep-08 20:59N 34°37' E 135°22'0 0.0
2017-Sep-08 20:29N 34°37' E 135°22'0 0.0
2017-Sep-08 19:47N 34°37' E 135°22'0 0.0
2017-Sep-08 19:29N 34°37' E 135°22'0 0.0
2017-Sep-08 18:47N 34°37' E 135°22'0 0.0
2017-Sep-08 18:29N 34°37' E 135°22'0 0.0
2017-Sep-08 17:59N 34°37' E 135°22'0 0.0
2017-Sep-08 17:29N 34°37' E 135°22'0 0.0
2017-Sep-08 16:59N 34°37' E 135°22'0 0.0
2017-Sep-08 16:29N 34°37' E 135°22'0 0.0
2017-Sep-08 15:59N 34°37' E 135°22'0 0.0
2017-Sep-08 15:29N 34°37' E 135°22'0 0.0
2017-Sep-08 14:59N 34°37' E 135°22'0 0.0
2017-Sep-08 14:29N 34°37' E 135°22'0 0.0
2017-Sep-08 13:59N 34°37' E 135°22'0 0.1
2017-Sep-08 13:29N 34°37' E 135°23'0 0.0
2017-Sep-08 12:59N 34°37' E 135°23'0 0.0
2017-Sep-08 12:29N 34°37' E 135°23'0 0.0
2017-Sep-08 11:29N 34°37' E 135°23'0 0.0
2017-Sep-08 10:59N 34°37' E 135°23'0 0.0
2017-Sep-08 10:11N 34°37' E 135°23'0 0.0
2017-Sep-08 09:41N 34°37' E 135°23'0 0.0
2017-Sep-08 09:29N 34°37' E 135°23'0 0.0
2017-Sep-08 09:00N 34°37' E 135°23'0 0.0
2017-Sep-08 08:30N 34°37' E 135°23'0 0.0
2017-Sep-08 08:00N 34°37' E 135°23'0 0.0
2017-Sep-08 07:29N 34°37' E 135°23'0 0.1
2017-Sep-08 07:00N 34°37' E 135°23'4 8.0
2017-Sep-08 06:30N 34°36' E 135°18'5 9.1
2017-Sep-08 06:00N 34°35' E 135°12'5 9.8
2017-Sep-08 05:29N 34°35' E 135°06'  
Track history (hours):
 
Tides and Currents Weather Stations Pressure Air Temp Water Temp Dewpoint Dewpoint Depression Visibility Wind Speed Wind Dir Waves Ship Positions

Sky Ever

Last reported at 2017-Sep-09 12:28 UTC. Time now 2017-Sep-20 20:15 UTC.
Position N 34°37' E 134°58'.
Warning: this ship's position is 11 days out of date.

Length 76 m; draft 5.4 m.

Type: Cargo ship. MMSI: 441751000.

Date/timePositionNaut miles runAvg speedWind from/ knotsBaromVisibWave heightAir tempDewpointWater temp
2017-Sep-09 12:28N 34°37' E 134°58'510.8
2017-Sep-09 11:58N 34°36' E 135°04'4 8.7
2017-Sep-09 11:30N 34°36' E 135°09'4 8.3
2017-Sep-09 11:00N 34°36' E 135°14'4 8.4
2017-Sep-09 10:30N 34°36' E 135°19'4 8.5
2017-Sep-09 10:00N 34°38' E 135°24'3 6.1
2017-Sep-09 09:30N 34°38' E 135°27'0 0.1
2017-Sep-09 08:58N 34°38' E 135°27'0 0.0
2017-Sep-09 07:46N 34°38' E 135°27'0 0.0
2017-Sep-09 07:28N 34°38' E 135°27'0 0.0
2017-Sep-09 06:58N 34°38' E 135°27'0 0.0
2017-Sep-09 06:28N 34°38' E 135°27'0 0.0
2017-Sep-09 05:52N 34°38' E 135°27'0 0.0
2017-Sep-09 05:28N 34°38' E 135°27'0 0.0
2017-Sep-09 04:52N 34°38' E 135°27'0 0.1
2017-Sep-09 04:10N 34°38' E 135°27'0 0.2
2017-Sep-09 03:58N 34°38' E 135°27'0 0.0
2017-Sep-09 03:22N 34°38' E 135°27'0 0.0
2017-Sep-09 01:28N 34°38' E 135°27'0 0.0
2017-Sep-09 00:58N 34°38' E 135°27'0 0.0
2017-Sep-09 00:28N 34°38' E 135°27'0 0.0
2017-Sep-08 23:46N 34°38' E 135°27'0 0.0
2017-Sep-08 23:16N 34°38' E 135°27'0 0.0
2017-Sep-08 22:58N 34°38' E 135°27'1 3.1
2017-Sep-08 22:30N 34°39' E 135°26'3 4.7
2017-Sep-08 21:47N 34°37' E 135°22'0 0.0
2017-Sep-08 21:29N 34°37' E 135°22'0 0.0
2017-Sep-08 20:59N 34°37' E 135°22'0 0.0
2017-Sep-08 20:29N 34°37' E 135°22'0 0.0
2017-Sep-08 19:47N 34°37' E 135°22'0 0.0
2017-Sep-08 19:29N 34°37' E 135°22'0 0.0
2017-Sep-08 18:47N 34°37' E 135°22'0 0.0
2017-Sep-08 18:29N 34°37' E 135°22'0 0.0
2017-Sep-08 17:59N 34°37' E 135°22'0 0.0
2017-Sep-08 17:29N 34°37' E 135°22'0 0.0
2017-Sep-08 16:59N 34°37' E 135°22'0 0.0
2017-Sep-08 16:29N 34°37' E 135°22'0 0.0
2017-Sep-08 15:59N 34°37' E 135°22'0 0.0
2017-Sep-08 15:29N 34°37' E 135°22'0 0.0
2017-Sep-08 14:59N 34°37' E 135°22'0 0.0
2017-Sep-08 14:29N 34°37' E 135°22'0 0.0
2017-Sep-08 13:59N 34°37' E 135°22'0 0.1
2017-Sep-08 13:29N 34°37' E 135°23'0 0.0
2017-Sep-08 12:59N 34°37' E 135°23'0 0.0
2017-Sep-08 12:29N 34°37' E 135°23'0 0.0
2017-Sep-08 11:29N 34°37' E 135°23'0 0.0
2017-Sep-08 10:59N 34°37' E 135°23'0 0.0
2017-Sep-08 10:11N 34°37' E 135°23'0 0.0
2017-Sep-08 09:41N 34°37' E 135°23'0 0.0
2017-Sep-08 09:29N 34°37' E 135°23'0 0.0
2017-Sep-08 09:00N 34°37' E 135°23'0 0.0
2017-Sep-08 08:30N 34°37' E 135°23'0 0.0
2017-Sep-08 08:00N 34°37' E 135°23'0 0.0
2017-Sep-08 07:29N 34°37' E 135°23'0 0.1
2017-Sep-08 07:00N 34°37' E 135°23'4 8.0
2017-Sep-08 06:30N 34°36' E 135°18'5 9.1
2017-Sep-08 06:00N 34°35' E 135°12'5 9.8
2017-Sep-08 05:29N 34°35' E 135°06'  

Dump ship's entire track history